Time;durP1;ratioP1;P1;durP2;ratioP2;P2;SDS_P1;SDS_P2;PMS_P1;PMS_P2;Temp;Humidity;BMP_temperature;BMP_pressure;BME280_temperature;BME280_humidity;BME280_pressure;Samples;Min_cycle;Max_cycle;Signal;HPM_P1;HPM_P2
2021/10/21 00:00:09;;;;;;;22.10;18.10;;;;;;;8.57;91.78;101435.84;5011303;28;20030;-68
2021/10/21 00:02:36;;;;;;;22.55;18.00;;;;;;;8.68;92.76;101440.72;5011281;28;20055;-68
2021/10/21 00:05:01;;;;;;;25.98;18.42;;;;;;;8.61;93.56;101428.28;5018691;28;20030;-68
2021/10/21 00:07:27;;;;;;;23.67;19.25;;;;;;;8.68;93.46;101425.28;5031294;28;20388;-65
2021/10/21 00:09:52;;;;;;;20.88;17.23;;;;;;;8.32;94.07;101420.53;5030504;28;20021;-68
2021/10/21 00:12:18;;;;;;;26.38;18.88;;;;;;;8.05;95.77;101422.28;5031294;28;20065;-67
2021/10/21 00:14:43;;;;;;;24.23;18.42;;;;;;;8.01;97.50;101421.22;5030737;28;20037;-66
2021/10/21 00:17:09;;;;;;;24.52;18.27;;;;;;;8.09;97.38;101398.56;5030864;28;20068;-66
2021/10/21 00:19:34;;;;;;;23.05;19.25;;;;;;;8.13;96.44;101415.06;5031180;28;20037;-69
2021/10/21 00:22:00;;;;;;;25.25;18.75;;;;;;;8.22;96.45;101408.81;5031318;28;20033;-66
2021/10/21 00:24:25;;;;;;;26.25;18.35;;;;;;;8.21;95.43;101412.16;5030489;28;20446;-69
2021/10/21 00:26:50;;;;;;;22.90;17.35;;;;;;;8.30;94.38;101405.78;5030744;28;20025;-69
2021/10/21 00:29:16;;;;;;;22.77;17.98;;;;;;;8.21;93.45;101396.72;5027336;28;20018;-70
2021/10/21 00:31:41;;;;;;;23.02;18.20;;;;;;;7.86;93.97;101385.16;5028180;28;20518;-71
2021/10/21 00:34:07;;;;;;;21.50;17.35;;;;;;;7.51;94.50;101337.53;5030998;28;20064;-68
2021/10/21 00:36:32;;;;;;;22.08;17.77;;;;;;;8.01;94.44;101402.31;5031091;28;20391;-71
2021/10/21 00:38:58;;;;;;;25.33;18.45;;;;;;;8.11;94.20;101417.50;5030513;28;20018;-71
2021/10/21 00:41:24;;;;;;;24.63;17.75;;;;;;;7.71;94.55;101379.03;5030737;28;20037;-69
2021/10/21 00:43:49;;;;;;;23.30;18.38;;;;;;;7.29;94.85;101310.50;5030574;28;20095;-69
2021/10/21 00:46:15;;;;;;;23.67;17.75;;;;;;;7.80;95.00;101394.16;5030685;28;20036;-64
2021/10/21 00:48:42;;;;;;;24.80;19.10;;;;;;;7.66;96.37;101408.69;5031762;28;20040;-64
2021/10/21 00:51:14;;;;;;;23.23;19.00;;;;;;;7.58;95.91;101406.53;5034139;28;20451;-68
2021/10/21 00:53:42;;;;;;;25.23;18.77;;;;;;;7.69;96.14;101393.47;5033943;28;20061;-65
2021/10/21 00:56:12;;;;;;;26.55;19.67;;;;;;;7.20;96.18;101299.66;5031556;28;20476;-67
2021/10/21 00:58:39;;;;;;;23.98;19.58;;;;;;;7.39;96.30;101313.63;5034186;28;20124;-69
2021/10/21 01:01:05;;;;;;;25.00;20.10;;;;;;;7.58;97.35;101365.41;5034290;28;20021;-65
2021/10/21 01:03:30;;;;;;;28.05;20.50;;;;;;;7.57;97.83;101384.19;5034298;28;20017;-63
2021/10/21 01:05:56;;;;;;;26.85;20.83;;;;;;;7.63;97.59;101372.50;5034011;28;20438;-65
2021/10/21 01:08:22;;;;;;;25.75;20.50;;;;;;;7.63;97.72;101375.06;5034001;28;20443;-63
2021/10/21 01:10:48;;;;;;;29.52;20.38;;;;;;;7.18;99.23;101378.25;5033758;28;20025;-65
2021/10/21 01:13:13;;;;;;;28.35;21.73;;;;;;;7.20;100.00;101384.41;5034166;28;20030;-66
2021/10/21 01:15:39;;;;;;;34.13;23.65;;;;;;;7.04;99.47;101346.56;5033311;28;20068;-65
2021/10/21 01:18:04;;;;;;;32.78;23.80;;;;;;;7.26;99.35;101379.66;5048185;28;20037;-65
2021/10/21 01:20:30;;;;;;;35.13;25.23;;;;;;;7.35;98.72;101378.47;5034107;28;20431;-69
2021/10/21 01:22:56;;;;;;;37.13;25.83;;;;;;;7.40;98.14;101367.69;5033645;28;20017;-65
2021/10/21 01:25:21;;;;;;;34.38;24.60;;;;;;;7.41;97.84;101361.78;5033910;28;20025;-67
2021/10/21 01:27:49;;;;;;;32.92;24.52;;;;;;;7.48;97.79;101357.00;5033547;28;20025;-64
2021/10/21 01:30:21;;;;;;;31.80;22.55;;;;;;;7.57;96.72;101350.78;5033389;28;20021;-71
2021/10/21 01:32:47;;;;;;;33.28;24.42;;;;;;;7.47;95.76;101358.69;5033485;28;20116;-66
2021/10/21 01:35:13;;;;;;;31.95;23.45;;;;;;;7.45;96.49;101358.59;5033603;28;20033;-64
2021/10/21 01:37:39;;;;;;;35.03;25.25;;;;;;;7.47;96.12;101351.00;5033506;28;20091;-66
2021/10/21 01:40:05;;;;;;;33.75;26.08;;;;;;;7.54;96.08;101363.44;5033198;28;20030;-67
2021/10/21 01:42:30;;;;;;;32.80;24.85;;;;;;;7.34;95.65;101339.06;5033360;28;20026;-65
2021/10/21 01:44:56;;;;;;;31.60;24.63;;;;;;;7.46;95.77;101359.47;5033283;28;20021;-67
2021/10/21 01:47:22;;;;;;;31.20;23.63;;;;;;;7.51;96.19;101355.53;5033729;28;20025;-68
2021/10/21 01:49:47;;;;;;;28.50;22.60;;;;;;;7.12;95.98;101295.69;5033198;28;20709;-65
2021/10/21 01:52:15;;;;;;;30.63;24.17;;;;;;;7.43;96.25;101351.59;5033576;28;20025;-65
2021/10/21 01:54:41;;;;;;;32.42;23.05;;;;;;;7.24;96.17;101323.81;5033060;28;20079;-66
2021/10/21 01:57:06;;;;;;;29.00;21.95;;;;;;;7.31;97.12;101348.25;5032823;28;20038;-64
2021/10/21 01:59:31;;;;;;;27.50;19.77;;;;;;;7.19;97.88;101349.22;5032091;28;20025;-65
2021/10/21 02:01:57;;;;;;;30.50;20.45;;;;;;;6.73;98.33;101274.34;5032547;28;20025;-66
2021/10/21 02:04:22;;;;;;;27.98;20.15;;;;;;;6.97;98.49;101334.97;5032961;28;20025;-67
2021/10/21 02:06:48;;;;;;;28.00;20.17;;;;;;;6.95;99.56;101346.84;5033218;28;20026;-67
2021/10/21 02:09:13;;;;;;;29.73;21.00;;;;;;;6.92;99.29;101338.91;5032785;28;20083;-67
2021/10/21 02:11:38;;;;;;;29.38;22.55;;;;;;;6.59;100.00;101338.47;5032902;28;20029;-67
2021/10/21 02:14:04;;;;;;;35.28;24.15;;;;;;;6.45;100.00;101349.47;5033017;28;20058;-67
2021/10/21 02:16:29;;;;;;;37.60;27.15;;;;;;;6.66;100.00;101346.59;5032688;28;20026;-67
2021/10/21 02:18:55;;;;;;;40.03;28.05;;;;;;;6.89;100.00;101340.41;5032629;28;20037;-66
2021/10/21 02:21:21;;;;;;;37.55;27.88;;;;;;;6.90;100.00;101314.84;5032474;28;20031;-64
2021/10/21 02:23:47;;;;;;;38.45;25.23;;;;;;;7.10;100.00;101338.34;5032561;28;20406;-66
2021/10/21 02:26:12;;;;;;;33.60;22.75;;;;;;;7.20;99.13;101345.88;5032679;28;20022;-66
2021/10/21 02:28:38;;;;;;;27.38;20.33;;;;;;;7.24;97.77;101323.81;5032775;28;20553;-67
2021/10/21 02:31:03;;;;;;;28.15;21.27;;;;;;;7.34;97.33;101327.88;5032496;28;20029;-67
2021/10/21 02:33:29;;;;;;;24.23;18.90;;;;;;;7.28;96.31;101328.38;5032810;28;20076;-67
2021/10/21 02:35:54;;;;;;;24.67;19.10;;;;;;;7.09;96.21;101328.84;5047122;28;20415;-64
2021/10/21 02:38:20;;;;;;;21.95;18.52;;;;;;;7.13;95.81;101331.72;5030770;28;20020;-67
2021/10/21 02:40:45;;;;;;;24.08;17.52;;;;;;;7.17;95.76;101330.25;5032333;28;20368;-65
2021/10/21 02:43:12;;;;;;;22.08;17.88;;;;;;;7.23;95.06;101330.66;5032303;28;20017;-64
2021/10/21 02:45:38;;;;;;;23.83;17.83;;;;;;;7.02;94.94;101326.69;5031067;28;20021;-66
2021/10/21 02:48:04;;;;;;;21.90;16.17;;;;;;;7.07;94.83;101333.91;5032192;28;20373;-70
2021/10/21 02:50:29;;;;;;;20.73;16.23;;;;;;;6.96;95.18;101329.75;5032073;28;20079;-66
2021/10/21 02:52:55;;;;;;;22.30;17.30;;;;;;;6.11;95.73;101239.50;5032471;28;20030;-72
2021/10/21 02:55:22;;;;;;;26.05;19.95;;;;;;;6.71;95.58;101345.22;5031708;28;20032;-65
2021/10/21 02:57:47;;;;;;;35.72;28.35;;;;;;;6.57;95.42;101305.81;5029701;28;20029;-67
2021/10/21 03:00:13;;;;;;;21.85;18.42;;;;;;;5.98;95.41;101209.53;5017390;28;20034;-69
2021/10/21 03:02:39;;;;;;;18.95;15.50;;;;;;;6.67;95.20;101335.50;5011604;28;20028;-66
2021/10/21 03:05:05;;;;;;;38.08;34.47;;;;;;;6.55;95.08;101310.81;5011951;28;20029;-66
2021/10/21 03:07:31;;;;;;;22.30;19.90;;;;;;;6.67;95.32;101333.84;5012058;28;20097;-64
2021/10/21 03:09:56;;;;;;;25.05;22.05;;;;;;;6.62;95.80;101335.22;5011847;28;20040;-64
2021/10/21 03:12:22;;;;;;;22.90;17.95;;;;;;;6.52;95.56;101338.84;5011105;28;20072;-67
2021/10/21 03:14:47;;;;;;;18.52;14.70;;;;;;;6.18;96.28;101290.41;5011850;28;20084;-65
2021/10/21 03:17:14;;;;;;;19.27;14.13;;;;;;;6.39;96.79;101333.66;5011320;28;20025;-67
2021/10/21 03:19:39;;;;;;;21.20;15.48;;;;;;;6.11;97.06;101309.59;5011289;28;20022;-69
2021/10/21 03:22:05;;;;;;;18.92;14.40;;;;;;;6.25;97.22;101325.91;5010604;28;20030;-65
2021/10/21 03:24:30;;;;;;;18.42;14.13;;;;;;;6.27;96.72;101313.22;5011531;28;20466;-71
2021/10/21 03:26:56;;;;;;;22.42;14.50;;;;;;;6.40;96.25;101325.19;5011902;28;20038;-64
2021/10/21 03:29:21;;;;;;;19.85;14.85;;;;;;;6.15;96.04;101291.06;5011846;28;20037;-67
2021/10/21 03:31:47;;;;;;;21.80;14.20;;;;;;;6.49;95.44;101320.66;5011912;28;20022;-67
2021/10/21 03:34:12;;;;;;;17.73;13.85;;;;;;;6.59;94.91;101330.78;5010470;28;20053;-64
2021/10/21 03:36:38;;;;;;;22.33;14.18;;;;;;;6.53;95.20;101327.81;5011693;28;20502;-66
2021/10/21 03:39:03;;;;;;;21.73;15.15;;;;;;;6.59;94.99;101328.22;5007932;28;20014;-68
2021/10/21 03:41:29;;;;;;;19.63;14.65;;;;;;;6.49;94.62;101300.16;5023288;28;20463;-65
2021/10/21 03:43:54;;;;;;;19.65;14.45;;;;;;;6.72;94.14;101319.66;5030218;28;20021;-66
2021/10/21 03:46:20;;;;;;;20.75;14.77;;;;;;;6.39;93.48;101233.63;5031590;28;20029;-66
2021/10/21 03:48:45;;;;;;;17.75;13.38;;;;;;;6.91;93.08;101318.28;5030963;28;20029;-67
2021/10/21 03:51:11;;;;;;;20.50;13.77;;;;;;;6.87;93.00;101319.75;5031309;28;20025;-65
2021/10/21 03:53:36;;;;;;;20.40;15.02;;;;;;;6.77;93.71;101302.88;5030953;28;20060;-71
2021/10/21 03:56:03;;;;;;;20.15;14.60;;;;;;;6.93;93.38;101304.78;5031067;28;20040;-73
2021/10/21 03:58:28;;;;;;;24.45;14.77;;;;;;;6.96;92.04;101299.81;5031210;28;20541;-65
2021/10/21 04:00:54;;;;;;;24.35;15.00;;;;;;;6.84;91.26;101272.47;5030951;28;20026;-67
2021/10/21 04:03:19;;;;;;;21.90;14.43;;;;;;;7.06;91.47;101293.59;5031027;28;20076;-67
2021/10/21 04:05:45;;;;;;;25.10;16.35;;;;;;;7.08;91.41;101291.16;5031058;28;20034;-64
2021/10/21 04:08:10;;;;;;;26.17;14.57;;;;;;;7.11;91.21;101283.63;5029881;28;20060;-70
2021/10/21 04:10:35;;;;;;;24.80;15.30;;;;;;;7.08;90.42;101261.22;5031092;28;20091;-64
2021/10/21 04:13:01;;;;;;;25.27;15.13;;;;;;;6.85;91.13;101257.16;5028904;28;20045;-66
2021/10/21 04:15:26;;;;;;;21.92;15.32;;;;;;;6.98;92.00;101279.41;5031240;28;20120;-66
2021/10/21 04:17:53;;;;;;;26.58;14.63;;;;;;;6.44;91.34;101198.91;5030643;28;20033;-67
2021/10/21 04:20:20;;;;;;;26.65;15.20;;;;;;;6.35;91.93;101182.94;5030943;28;20117;-64
2021/10/21 04:22:45;;;;;;;28.67;15.85;;;;;;;6.79;91.96;101279.88;5030719;28;20029;-66
2021/10/21 04:25:11;;;;;;;21.98;15.52;;;;;;;6.83;92.30;101275.81;5034173;28;20103;-66
2021/10/21 04:27:36;;;;;;;20.58;14.73;;;;;;;6.78;92.83;101267.84;5029076;28;20037;-65
2021/10/21 04:30:03;;;;;;;24.92;14.27;;;;;;;7.01;91.93;101286.41;5014802;28;20439;-69
2021/10/21 04:32:28;;;;;;;25.08;15.05;;;;;;;6.79;92.02;101285.00;5014592;28;20464;-67
2021/10/21 04:34:54;;;;;;;20.88;13.45;;;;;;;6.66;93.33;101272.19;5014798;28;20030;-69
2021/10/21 04:37:19;;;;;;;25.70;14.98;;;;;;;6.67;93.45;101267.13;5014673;28;20500;-68
2021/10/21 04:39:45;;;;;;;26.08;16.83;;;;;;;6.55;94.49;101274.03;5027161;28;20029;-64
2021/10/21 04:42:10;;;;;;;19.88;15.18;;;;;;;6.54;95.25;101278.28;5034556;28;20407;-71
2021/10/21 04:44:36;;;;;;;27.55;17.80;;;;;;;6.48;95.44;101272.75;5034317;28;20037;-71
2021/10/21 04:47:01;;;;;;;26.70;19.05;;;;;;;6.53;96.11;101273.94;5034478;28;20025;-73
2021/10/21 04:49:27;;;;;;;29.42;20.50;;;;;;;6.63;95.70;101272.88;5029005;28;20479;-66
2021/10/21 04:51:52;;;;;;;26.92;19.95;;;;;;;6.46;95.71;101276.88;5016340;28;20435;-70
2021/10/21 04:54:18;;;;;;;26.13;18.63;;;;;;;6.29;96.64;101276.63;5009180;28;20026;-63
2021/10/21 04:56:44;;;;;;;25.25;18.92;;;;;;;6.37;97.86;101266.88;5014388;28;20498;-64
2021/10/21 04:59:09;;;;;;;36.30;19.15;;;;;;;6.45;96.12;101273.41;5013254;28;20018;-69
2021/10/21 05:01:35;;;;;;;33.60;19.23;;;;;;;6.50;95.82;101271.16;5013935;28;20080;-67
2021/10/21 05:04:00;;;;;;;51.75;20.27;;;;;;;6.50;96.35;101285.66;5014476;28;20084;-69
2021/10/21 05:06:27;;;;;;;52.35;21.65;;;;;;;6.30;97.42;101288.66;5014266;28;20036;-65
2021/10/21 05:08:53;;;;;;;57.47;23.95;;;;;;;6.41;98.61;101280.81;5013340;28;20034;-67
2021/10/21 05:11:19;;;;;;;53.17;23.08;;;;;;;6.42;99.38;101287.72;5014586;28;20061;-65
2021/10/21 05:13:44;;;;;;;53.30;24.60;;;;;;;6.10;100.00;101292.44;5014065;28;20428;-67
2021/10/21 05:16:10;;;;;;;63.38;27.45;;;;;;;6.12;100.00;101284.88;5014033;28;20029;-66
2021/10/21 05:18:35;;;;;;;107.30;36.20;;;;;;;6.13;100.00;101281.50;5014058;28;20461;-68
2021/10/21 05:21:01;;;;;;;158.82;39.38;;;;;;;5.76;100.00;101212.34;5006212;28;20027;-67
2021/10/21 05:23:27;;;;;;;168.95;42.83;;;;;;;5.31;100.00;101117.97;5012398;28;20124;-67
2021/10/21 05:25:52;;;;;;;154.50;46.00;;;;;;;6.38;100.00;101298.53;5012444;28;20033;-66
2021/10/21 05:28:18;;;;;;;181.23;41.47;;;;;;;6.13;100.00;101290.09;5013859;28;20075;-66
2021/10/21 05:30:43;;;;;;;178.68;39.10;;;;;;;5.99;100.00;101286.59;5027291;28;20107;-69
2021/10/21 05:33:09;;;;;;;262.17;34.67;;;;;;;5.69;100.00;101287.88;5011827;28;20077;-66
2021/10/21 05:35:34;;;;;;;280.45;33.33;;;;;;;5.69;100.00;101287.88;5000236;28;20026;-67
2021/10/21 05:38:00;;;;;;;238.20;32.85;;;;;;;5.75;100.00;101261.81;5002551;28;20030;-68
2021/10/21 05:40:27;;;;;;;275.25;32.05;;;;;;;5.97;100.00;101292.38;4998590;28;20029;-68
2021/10/21 05:42:53;;;;;;;263.40;32.70;;;;;;;5.99;100.00;101289.16;4994960;28;20022;-67
2021/10/21 05:45:19;;;;;;;215.75;30.65;;;;;;;6.01;100.00;101308.84;4994656;28;20037;-68
2021/10/21 05:47:46;;;;;;;162.48;28.50;;;;;;;6.07;100.00;101286.19;4993655;28;20037;-67
2021/10/21 05:50:12;;;;;;;120.53;28.42;;;;;;;6.31;100.00;101305.81;4999279;28;20412;-66
2021/10/21 05:52:38;;;;;;;130.13;28.00;;;;;;;6.10;100.00;101284.75;5013442;28;20029;-66
2021/10/21 05:55:04;;;;;;;130.48;27.77;;;;;;;6.01;100.00;101293.47;5013614;28;20033;-66
2021/10/21 05:57:30;;;;;;;192.48;30.08;;;;;;;5.31;100.00;101189.66;5012883;28;20098;-67
2021/10/21 05:59:55;;;;;;;135.70;28.95;;;;;;;6.17;100.00;101295.41;5012521;28;20030;-68
2021/10/21 06:02:21;;;;;;;106.75;27.02;;;;;;;5.96;100.00;101253.00;5009503;28;20719;-66
2021/10/21 06:04:46;;;;;;;107.28;27.13;;;;;;;6.41;100.00;101286.81;5013050;28;20057;-65
2021/10/21 06:07:12;;;;;;;101.60;26.63;;;;;;;6.69;100.00;101293.81;5012899;28;20101;-65
2021/10/21 06:09:38;;;;;;;130.90;26.98;;;;;;;6.76;100.00;101283.13;5013132;28;20104;-68
2021/10/21 06:12:04;;;;;;;107.32;26.30;;;;;;;6.84;100.00;101283.66;5025466;28;20491;-67
2021/10/21 06:14:31;;;;;;;63.97;21.58;;;;;;;6.99;100.00;101275.16;5012272;28;20050;-67
2021/10/21 06:16:58;;;;;;;32.85;20.65;;;;;;;7.10;100.00;101281.84;5012628;28;20040;-69
2021/10/21 06:19:23;;;;;;;32.88;19.98;;;;;;;7.11;100.00;101283.63;5011263;28;20109;-68
2021/10/21 06:21:57;;;;;;;69.88;23.88;;;;;;;7.20;100.00;101285.91;5012924;28;20109;-68
2021/10/21 06:24:22;;;;;;;39.90;20.95;;;;;;;7.35;100.00;101286.91;5024868;28;20038;-69
2021/10/21 06:26:48;;;;;;;35.22;20.85;;;;;;;7.52;100.00;101287.06;5012492;28;20083;-67
2021/10/21 06:29:13;;;;;;;38.88;20.92;;;;;;;7.63;100.00;101280.00;5009689;28;20404;-67
2021/10/21 06:31:39;;;;;;;51.47;20.85;;;;;;;7.53;100.00;101261.44;5012605;28;20490;-67
2021/10/21 06:34:04;;;;;;;47.90;21.65;;;;;;;7.83;100.00;101278.66;5012778;28;20026;-67
2021/10/21 06:36:29;;;;;;;42.60;20.67;;;;;;;7.92;100.00;101277.56;5011561;28;20030;-66
2021/10/21 06:38:55;;;;;;;35.83;23.55;;;;;;;8.04;100.00;101272.25;5013229;28;20034;-69
2021/10/21 06:41:20;;;;;;;32.20;21.83;;;;;;;8.08;100.00;101261.34;5016729;28;20026;-65
2021/10/21 06:43:46;;;;;;;28.80;20.80;;;;;;;8.03;100.00;101241.31;5012013;28;20029;-68
2021/10/21 06:46:11;;;;;;;29.73;20.35;;;;;;;8.26;100.00;101269.28;5026919;28;20029;-67
2021/10/21 06:48:38;;;;;;;33.75;21.58;;;;;;;8.19;100.00;101273.97;5028038;28;20034;-67
2021/10/21 06:51:04;;;;;;;31.15;21.08;;;;;;;7.86;100.00;101263.41;5027134;28;20033;-66
2021/10/21 06:53:29;;;;;;;39.53;20.63;;;;;;;7.94;100.00;101267.34;5014394;28;20116;-66
2021/10/21 06:55:55;;;;;;;24.23;18.65;;;;;;;7.98;100.00;101268.44;5016198;28;20025;-67
2021/10/21 06:58:20;;;;;;;25.88;20.05;;;;;;;7.82;100.00;101239.19;5009645;28;20026;-67
2021/10/21 07:00:46;;;;;;;29.40;20.77;;;;;;;8.01;100.00;101268.59;5029238;28;20021;-66
2021/10/21 07:03:12;;;;;;;27.88;21.13;;;;;;;8.04;100.00;101269.69;5036614;28;20130;-65
2021/10/21 07:05:42;;;;;;;34.63;21.67;;;;;;;8.09;100.00;101275.09;5019762;28;20108;-65
2021/10/21 07:08:09;;;;;;;37.95;23.30;;;;;;;7.92;100.00;101269.84;5032388;28;20113;-66
2021/10/21 07:10:35;;;;;;;26.15;20.65;;;;;;;7.26;100.00;101165.59;5031062;28;20037;-68
2021/10/21 07:13:04;;;;;;;33.60;21.90;;;;;;;7.31;100.00;101159.03;5031967;28;20059;-65
2021/10/21 07:15:32;;;;;;;28.07;22.77;;;;;;;8.13;100.00;101253.91;5031606;28;20045;-66
2021/10/21 07:17:57;;;;;;;27.02;21.30;;;;;;;8.33;100.00;101257.66;5031579;28;20443;-66
2021/10/21 07:20:23;;;;;;;28.95;21.70;;;;;;;8.55;100.00;101236.66;5031894;28;20079;-67
2021/10/21 07:22:49;;;;;;;29.95;22.73;;;;;;;8.78;100.00;101229.34;5031414;28;20033;-67
2021/10/21 07:25:14;;;;;;;29.38;22.63;;;;;;;9.08;100.00;101234.44;5031076;28;20029;-64
2021/10/21 07:27:42;;;;;;;30.00;22.15;;;;;;;9.00;100.00;101228.00;5031306;28;20033;-69
2021/10/21 07:30:08;;;;;;;28.38;22.67;;;;;;;8.76;100.00;101228.41;5031490;28;20097;-69
2021/10/21 07:32:34;;;;;;;29.02;22.63;;;;;;;8.90;100.00;101224.88;5031485;28;20082;-67
2021/10/21 07:35:00;;;;;;;28.25;22.85;;;;;;;8.92;100.00;101224.09;5031116;28;20407;-67
2021/10/21 07:37:25;;;;;;;28.50;22.85;;;;;;;9.37;100.00;101215.44;5031147;28;20063;-66
2021/10/21 07:39:51;;;;;;;30.75;22.35;;;;;;;9.69;100.00;101218.84;5030950;28;20033;-66
2021/10/21 07:42:16;;;;;;;28.15;22.33;;;;;;;9.94;100.00;101216.63;5031271;28;20419;-66
2021/10/21 07:44:46;;;;;;;30.67;23.30;;;;;;;9.21;100.00;101048.81;5031214;28;20467;-66
2021/10/21 07:47:12;;;;;;;;;;;;;;;10.46;100.00;101206.38;5031185;28;20407;-66
2021/10/21 07:49:38;;;;;;;27.35;20.75;;;;;;;10.71;100.00;101207.59;5031465;28;19909;-66
2021/10/21 07:52:04;;;;;;;26.08;22.33;;;;;;;10.83;100.00;101207.31;5030743;28;20021;-65
2021/10/21 07:54:31;;;;;;;27.40;22.50;;;;;;;10.98;99.42;101205.44;5030852;28;20037;-68
2021/10/21 07:57:00;;;;;;;27.02;20.75;;;;;;;11.19;99.13;101201.19;5031092;28;20029;-67
2021/10/21 07:59:27;;;;;;;24.60;20.88;;;;;;;11.25;97.83;101194.63;5022409;28;20025;-64
2021/10/21 08:01:54;;;;;;;25.65;21.48;;;;;;;11.36;97.75;101192.50;5031199;28;20038;-67
2021/10/21 08:04:19;;;;;;;21.85;17.70;;;;;;;11.07;96.19;101117.13;5031141;28;20087;-66
2021/10/21 08:06:45;;;;;;;18.20;15.02;;;;;;;11.75;90.54;101181.28;5014779;28;20038;-67
2021/10/21 08:09:11;;;;;;;19.58;15.52;;;;;;;11.59;89.13;101096.97;5010452;28;20041;-69
2021/10/21 08:11:40;;;;;;;21.55;15.23;;;;;;;12.21;89.59;101172.94;5011325;28;20025;-67
2021/10/21 08:14:07;;;;;;;18.67;14.95;;;;;;;11.86;88.44;101096.38;5011262;28;20489;-67
2021/10/21 08:16:33;;;;;;;16.13;13.90;;;;;;;12.18;86.81;101148.63;5010920;28;20031;-68
2021/10/21 08:18:58;;;;;;;17.60;14.52;;;;;;;12.13;86.77;101114.78;5011128;28;20511;-67
2021/10/21 08:21:24;;;;;;;18.10;14.20;;;;;;;12.56;86.83;101162.22;5010670;28;20025;-67
2021/10/21 08:23:53;;;;;;;20.52;14.98;;;;;;;12.64;86.26;101147.88;5011212;28;20034;-68
2021/10/21 08:26:20;;;;;;;21.45;16.60;;;;;;;12.43;86.45;101101.31;5010853;28;20076;-67
2021/10/21 08:28:47;;;;;;;19.85;14.55;;;;;;;12.54;85.64;101096.56;5011146;28;20061;-70
2021/10/21 08:31:14;;;;;;;20.33;16.20;;;;;;;12.86;86.84;101143.53;5010924;28;20109;-67
2021/10/21 08:33:39;;;;;;;18.92;14.55;;;;;;;12.67;86.87;101090.13;5009703;28;20033;-68
2021/10/21 08:36:08;;;;;;;21.58;14.88;;;;;;;13.17;85.39;101143.00;5011105;28;20392;-69
2021/10/21 08:38:34;;;;;;;18.77;13.43;;;;;;;13.26;84.05;101147.66;5013423;28;20034;-68
2021/10/21 08:41:00;;;;;;;20.75;14.68;;;;;;;13.33;83.12;101131.44;5030785;28;20044;-69
2021/10/21 08:43:25;;;;;;;20.98;15.88;;;;;;;13.03;82.91;101053.47;5030472;28;20091;-68
2021/10/21 08:45:51;;;;;;;18.48;14.07;;;;;;;13.62;82.84;101129.06;5030762;28;20029;-68
2021/10/21 08:48:18;;;;;;;17.33;14.60;;;;;;;13.60;83.00;101128.13;5030367;28;20095;-69
2021/10/21 08:50:47;;;;;;;19.95;14.40;;;;;;;13.80;82.20;101113.25;5030427;28;20091;-69
2021/10/21 08:53:12;;;;;;;17.30;13.63;;;;;;;13.68;81.56;101120.59;5030569;28;20097;-69
2021/10/21 08:55:38;;;;;;;16.27;12.15;;;;;;;13.79;80.42;101108.88;5030493;28;20117;-69
2021/10/21 08:58:04;;;;;;;18.20;13.43;;;;;;;13.93;79.91;101109.34;5021443;28;20394;-69
2021/10/21 09:00:31;;;;;;;23.55;13.00;;;;;;;14.01;78.76;101105.28;5021745;28;20033;-68
2021/10/21 09:03:01;;;;;;;16.52;13.60;;;;;;;14.09;78.40;101089.97;5020941;28;20104;-69
2021/10/21 09:05:37;;;;;;;15.32;11.32;;;;;;;14.10;77.60;101072.69;5030128;28;20120;-69
2021/10/21 09:08:08;;;;;;;16.13;10.93;;;;;;;14.14;78.47;101056.38;5030347;28;20040;-69
2021/10/21 09:10:45;;;;;;;15.68;12.45;;;;;;;14.35;76.55;101084.72;5031154;28;20036;-68
2021/10/21 09:13:28;;;;;;;14.80;13.02;;;;;;;14.44;76.87;101069.41;5033888;28;20049;-68
2021/10/21 09:15:56;;;;;;;18.42;11.95;;;;;;;14.67;77.38;101070.16;5000609;28;20149;-68
2021/10/21 09:18:27;;;;;;;16.17;10.98;;;;;;;14.75;76.85;101070.38;4994975;28;20030;-69
2021/10/21 09:20:53;;;;;;;14.57;12.05;;;;;;;14.84;76.40;101065.47;4994993;28;20026;-68
2021/10/21 09:23:26;;;;;;;16.35;11.90;;;;;;;14.93;74.08;101031.03;4994316;28;20034;-66
2021/10/21 09:25:51;;;;;;;13.45;11.48;;;;;;;15.05;74.43;101051.28;4996348;28;20026;-68
2021/10/21 09:28:16;;;;;;;13.75;11.07;;;;;;;15.19;74.56;101047.38;4997607;28;20046;-67
2021/10/21 09:30:52;;;;;;;14.10;11.07;;;;;;;15.31;72.93;101039.00;4995618;28;20476;-68
2021/10/21 09:33:18;;;;;;;15.00;12.15;;;;;;;15.35;72.62;101037.38;4996345;28;20496;-67
2021/10/21 09:35:55;;;;;;;19.08;12.75;;;;;;;15.55;72.32;101029.19;5009940;28;20046;-68
2021/10/21 09:38:26;;;;;;;15.68;11.18;;;;;;;15.52;73.14;101003.97;5002329;28;20041;-66
2021/10/21 09:40:53;;;;;;;13.57;10.93;;;;;;;15.67;72.79;100998.28;4994477;28;20053;-64
2021/10/21 09:43:31;;;;;;;14.68;10.70;;;;;;;15.69;70.85;101010.50;4998265;28;20032;-68
2021/10/21 09:45:57;;;;;;;12.57;10.23;;;;;;;15.71;71.86;101005.31;4995915;28;20488;-65
2021/10/21 09:48:23;;;;;;;15.65;10.85;;;;;;;15.40;72.33;100915.22;5000001;28;20451;-67
2021/10/21 09:50:48;;;;;;;14.25;9.93;;;;;;;16.00;71.38;100981.75;5027801;28;20104;-67
2021/10/21 09:53:22;;;;;;;13.38;9.85;;;;;;;16.05;70.78;100979.22;4996869;28;20030;-68
2021/10/21 09:56:00;;;;;;;13.00;10.32;;;;;;;15.78;70.15;100929.13;4995752;28;20077;-66
2021/10/21 09:58:41;;;;;;;12.35;10.60;;;;;;;16.01;70.07;100934.00;5006894;28;20484;-66
2021/10/21 10:01:09;;;;;;;12.75;10.80;;;;;;;16.24;69.19;100933.66;5003866;28;20027;-65
2021/10/21 10:03:39;;;;;;;14.48;10.07;;;;;;;16.29;67.82;100939.81;4999191;28;20038;-65
2021/10/21 10:06:05;;;;;;;10.88;8.90;;;;;;;16.52;67.08;100968.94;4996746;28;20118;-66
2021/10/21 10:08:31;;;;;;;11.48;9.55;;;;;;;16.51;67.22;100938.53;4994484;28;20117;-67
2021/10/21 10:11:03;;;;;;;11.93;10.35;;;;;;;16.68;67.77;100956.25;4995166;28;20040;-67
2021/10/21 10:13:28;;;;;;;12.40;10.48;;;;;;;16.85;66.95;100935.69;4993847;28;20023;-66
2021/10/21 10:15:58;;;;;;;21.77;19.52;;;;;;;16.92;67.00;100940.19;4993702;28;20046;-68
2021/10/21 10:18:26;;;;;;;13.95;11.20;;;;;;;17.18;66.06;100927.63;4995074;28;20050;-65
2021/10/21 10:21:18;;;;;;;12.52;10.07;;;;;;;17.32;64.71;100946.16;4995518;28;20444;-66
2021/10/21 10:24:03;;;;;;;11.00;9.68;;;;;;;17.47;63.01;100922.03;4994384;28;20018;-66
2021/10/21 10:26:49;;;;;;;11.15;9.70;;;;;;;17.42;64.87;100918.44;4995245;28;20045;-67
2021/10/21 10:29:42;;;;;;;14.73;10.32;;;;;;;17.43;63.65;100904.53;4993795;28;20033;-65
2021/10/21 10:32:37;;;;;;;10.65;9.55;;;;;;;17.61;63.84;100906.56;5007167;28;20504;-66
2021/10/21 10:35:08;;;;;;;11.00;9.80;;;;;;;17.44;64.30;100899.34;5009352;28;20045;-65
2021/10/21 10:37:41;;;;;;;11.60;9.63;;;;;;;17.73;63.09;100893.69;5009774;28;20033;-66
2021/10/21 10:40:08;;;;;;;13.35;8.65;;;;;;;17.77;62.00;100886.78;5010417;28;20045;-65
2021/10/21 10:42:36;;;;;;;13.23;9.20;;;;;;;17.90;63.41;100883.47;5006111;28;20125;-67
2021/10/21 10:45:12;;;;;;;10.23;9.05;;;;;;;18.05;61.80;100872.38;5005325;28;20060;-67
2021/10/21 10:47:43;;;;;;;12.90;9.15;;;;;;;18.21;60.72;100876.06;5009410;28;20029;-68
2021/10/21 10:50:22;;;;;;;11.00;9.52;;;;;;;18.34;60.93;100863.13;5009223;28;20538;-66
2021/10/21 10:52:52;;;;;;;11.35;9.90;;;;;;;18.51;60.83;100865.94;5008257;28;20029;-66
2021/10/21 10:55:24;;;;;;;12.68;9.07;;;;;;;18.59;58.74;100852.09;5009154;28;20042;-66
2021/10/21 10:57:50;;;;;;;11.48;8.57;;;;;;;18.60;58.89;100847.72;5003657;28;20042;-66
2021/10/21 11:00:50;;;;;;;12.38;9.25;;;;;;;18.75;59.76;100839.13;5007411;28;20037;-64
2021/10/21 11:03:32;;;;;;;10.02;8.68;;;;;;;18.14;59.31;100746.19;5008294;28;20507;-65
2021/10/21 11:06:03;;;;;;;12.43;9.15;;;;;;;18.80;58.46;100837.44;5005225;28;20081;-69
2021/10/21 11:08:47;;;;;;;13.40;9.98;;;;;;;18.76;58.14;100826.06;5005039;28;20050;-65
2021/10/21 11:11:42;;;;;;;12.20;9.00;;;;;;;18.81;58.19;100830.50;4992926;28;20026;-64